Terminal Aerodrome Forecast
Issued by NWS Twin Cities, MN

Home | Current Version | Previous Version | Text Only | Print | Product List | Glossary Off
Versions: 1 2 3 4 5 6 7 8 9 10 11 12 13 14 15 16 17 18 19 20 21 22 23 24 25 26 27 28 29

671
FTUS43 KMPX 230542
TAFMSP
TAF
KMSP 230542Z 2306/2412 34013G20KT P6SM OVC015
     FM231000 36012KT P6SM BKN180
     FM231900 02013G21KT P6SM OVC100
     FM240000 02016G25KT P6SM OVC050
     FM240500 02022G34KT 3SM -SN BR OVC025=

USA.gov is the U.S. government's official web portal to all federal, state and local government web resources and services.